sensor_id;sensor_type;location;lat;lon;timestamp;P1;durP1;ratioP1;P2;durP2;ratioP2
26742;SDS011;14341;51.256;22.478;2023-03-19T00:02:04;31.40;;;17.63;;
26742;SDS011;14341;51.256;22.478;2023-03-19T00:05:18;36.38;;;19.08;;
26742;SDS011;14341;51.256;22.478;2023-03-19T00:08:22;39.40;;;19.73;;
26742;SDS011;14341;51.256;22.478;2023-03-19T00:11:26;33.00;;;16.83;;
26742;SDS011;14341;51.256;22.478;2023-03-19T00:14:29;38.10;;;18.92;;
26742;SDS011;14341;51.256;22.478;2023-03-19T00:17:32;32.40;;;17.10;;
26742;SDS011;14341;51.256;22.478;2023-03-19T00:20:36;34.38;;;18.27;;
26742;SDS011;14341;51.256;22.478;2023-03-19T00:23:40;31.27;;;16.83;;
26742;SDS011;14341;51.256;22.478;2023-03-19T00:26:44;34.35;;;17.85;;
26742;SDS011;14341;51.256;22.478;2023-03-19T00:29:47;31.15;;;17.80;;
26742;SDS011;14341;51.256;22.478;2023-03-19T00:32:50;34.85;;;17.98;;
26742;SDS011;14341;51.256;22.478;2023-03-19T00:35:54;33.53;;;17.77;;
26742;SDS011;14341;51.256;22.478;2023-03-19T00:38:59;32.38;;;17.55;;
26742;SDS011;14341;51.256;22.478;2023-03-19T00:42:02;33.92;;;17.55;;
26742;SDS011;14341;51.256;22.478;2023-03-19T00:45:07;29.77;;;16.95;;
26742;SDS011;14341;51.256;22.478;2023-03-19T00:48:11;29.75;;;17.15;;
26742;SDS011;14341;51.256;22.478;2023-03-19T00:51:14;30.90;;;16.50;;
26742;SDS011;14341;51.256;22.478;2023-03-19T00:54:19;31.65;;;17.58;;
26742;SDS011;14341;51.256;22.478;2023-03-19T00:57:22;33.13;;;17.38;;
26742;SDS011;14341;51.256;22.478;2023-03-19T01:00:25;27.95;;;17.30;;
26742;SDS011;14341;51.256;22.478;2023-03-19T01:03:29;27.27;;;15.68;;
26742;SDS011;14341;51.256;22.478;2023-03-19T01:06:32;30.42;;;17.20;;
26742;SDS011;14341;51.256;22.478;2023-03-19T01:09:37;33.33;;;17.50;;
26742;SDS011;14341;51.256;22.478;2023-03-19T01:12:41;29.65;;;17.80;;
26742;SDS011;14341;51.256;22.478;2023-03-19T01:15:45;28.08;;;16.65;;
26742;SDS011;14341;51.256;22.478;2023-03-19T01:18:53;32.88;;;18.42;;
26742;SDS011;14341;51.256;22.478;2023-03-19T01:21:56;29.90;;;16.92;;
26742;SDS011;14341;51.256;22.478;2023-03-19T01:25:02;29.05;;;16.20;;
26742;SDS011;14341;51.256;22.478;2023-03-19T01:28:06;30.58;;;16.40;;
26742;SDS011;14341;51.256;22.478;2023-03-19T01:31:12;32.13;;;17.13;;
26742;SDS011;14341;51.256;22.478;2023-03-19T01:34:44;30.83;;;17.50;;
26742;SDS011;14341;51.256;22.478;2023-03-19T01:37:50;26.77;;;15.95;;
26742;SDS011;14341;51.256;22.478;2023-03-19T01:40:55;28.17;;;17.23;;
26742;SDS011;14341;51.256;22.478;2023-03-19T01:43:59;32.58;;;17.35;;
26742;SDS011;14341;51.256;22.478;2023-03-19T01:47:13;29.98;;;15.95;;
26742;SDS011;14341;51.256;22.478;2023-03-19T01:50:38;25.63;;;16.10;;
26742;SDS011;14341;51.256;22.478;2023-03-19T01:54:19;28.60;;;16.35;;
26742;SDS011;14341;51.256;22.478;2023-03-19T01:57:33;32.50;;;16.80;;
26742;SDS011;14341;51.256;22.478;2023-03-19T02:00:50;31.63;;;15.77;;
26742;SDS011;14341;51.256;22.478;2023-03-19T02:03:54;31.42;;;15.98;;
26742;SDS011;14341;51.256;22.478;2023-03-19T02:07:01;29.77;;;15.82;;
26742;SDS011;14341;51.256;22.478;2023-03-19T02:10:06;31.50;;;17.02;;
26742;SDS011;14341;51.256;22.478;2023-03-19T02:13:14;29.02;;;16.25;;
26742;SDS011;14341;51.256;22.478;2023-03-19T02:16:18;31.30;;;16.00;;
26742;SDS011;14341;51.256;22.478;2023-03-19T02:19:24;28.52;;;16.02;;
26742;SDS011;14341;51.256;22.478;2023-03-19T02:22:32;26.50;;;15.77;;
26742;SDS011;14341;51.256;22.478;2023-03-19T02:25:39;30.48;;;17.85;;
26742;SDS011;14341;51.256;22.478;2023-03-19T02:28:53;28.08;;;17.05;;
26742;SDS011;14341;51.256;22.478;2023-03-19T02:32:03;29.98;;;17.60;;
26742;SDS011;14341;51.256;22.478;2023-03-19T02:35:07;32.17;;;17.65;;
26742;SDS011;14341;51.256;22.478;2023-03-19T02:38:11;32.42;;;17.92;;
26742;SDS011;14341;51.256;22.478;2023-03-19T02:41:17;30.85;;;17.42;;
26742;SDS011;14341;51.256;22.478;2023-03-19T02:44:21;28.75;;;18.02;;
26742;SDS011;14341;51.256;22.478;2023-03-19T02:47:25;31.08;;;17.48;;
26742;SDS011;14341;51.256;22.478;2023-03-19T02:50:29;31.45;;;18.00;;
26742;SDS011;14341;51.256;22.478;2023-03-19T02:53:33;34.08;;;19.13;;
26742;SDS011;14341;51.256;22.478;2023-03-19T02:56:37;36.30;;;19.40;;
26742;SDS011;14341;51.256;22.478;2023-03-19T02:59:44;31.77;;;18.88;;
26742;SDS011;14341;51.256;22.478;2023-03-19T03:02:47;35.63;;;18.88;;
26742;SDS011;14341;51.256;22.478;2023-03-19T03:05:50;32.60;;;18.73;;
26742;SDS011;14341;51.256;22.478;2023-03-19T03:08:53;33.33;;;18.58;;
26742;SDS011;14341;51.256;22.478;2023-03-19T03:11:59;33.78;;;19.50;;
26742;SDS011;14341;51.256;22.478;2023-03-19T03:15:03;31.95;;;19.02;;
26742;SDS011;14341;51.256;22.478;2023-03-19T03:18:07;31.40;;;18.33;;
26742;SDS011;14341;51.256;22.478;2023-03-19T03:21:10;35.10;;;20.65;;
26742;SDS011;14341;51.256;22.478;2023-03-19T03:24:14;35.80;;;20.80;;
26742;SDS011;14341;51.256;22.478;2023-03-19T03:27:18;35.85;;;21.25;;
26742;SDS011;14341;51.256;22.478;2023-03-19T03:30:21;35.95;;;20.73;;
26742;SDS011;14341;51.256;22.478;2023-03-19T03:33:25;35.42;;;20.17;;
26742;SDS011;14341;51.256;22.478;2023-03-19T03:36:28;34.50;;;20.88;;
26742;SDS011;14341;51.256;22.478;2023-03-19T03:39:32;35.20;;;20.63;;
26742;SDS011;14341;51.256;22.478;2023-03-19T03:42:37;37.33;;;22.48;;
26742;SDS011;14341;51.256;22.478;2023-03-19T03:45:42;36.20;;;21.95;;
26742;SDS011;14341;51.256;22.478;2023-03-19T03:48:45;39.47;;;22.15;;
26742;SDS011;14341;51.256;22.478;2023-03-19T03:51:49;34.20;;;21.55;;
26742;SDS011;14341;51.256;22.478;2023-03-19T03:54:53;41.92;;;23.50;;
26742;SDS011;14341;51.256;22.478;2023-03-19T03:57:58;40.63;;;23.92;;
26742;SDS011;14341;51.256;22.478;2023-03-19T04:01:01;41.90;;;23.85;;
26742;SDS011;14341;51.256;22.478;2023-03-19T04:04:05;38.50;;;24.33;;
26742;SDS011;14341;51.256;22.478;2023-03-19T04:07:09;42.00;;;25.20;;
26742;SDS011;14341;51.256;22.478;2023-03-19T04:10:16;44.88;;;25.15;;
26742;SDS011;14341;51.256;22.478;2023-03-19T04:13:21;38.53;;;24.70;;
26742;SDS011;14341;51.256;22.478;2023-03-19T04:16:25;42.08;;;24.58;;
26742;SDS011;14341;51.256;22.478;2023-03-19T04:19:29;41.25;;;23.50;;
26742;SDS011;14341;51.256;22.478;2023-03-19T04:22:33;36.60;;;23.10;;
26742;SDS011;14341;51.256;22.478;2023-03-19T04:25:37;38.38;;;24.10;;
26742;SDS011;14341;51.256;22.478;2023-03-19T04:28:43;36.30;;;21.70;;
26742;SDS011;14341;51.256;22.478;2023-03-19T04:31:46;39.40;;;23.67;;
26742;SDS011;14341;51.256;22.478;2023-03-19T04:34:49;32.78;;;20.67;;
26742;SDS011;14341;51.256;22.478;2023-03-19T04:37:53;31.45;;;21.90;;
26742;SDS011;14341;51.256;22.478;2023-03-19T04:40:56;34.08;;;21.52;;
26742;SDS011;14341;51.256;22.478;2023-03-19T04:44:01;37.55;;;22.33;;
26742;SDS011;14341;51.256;22.478;2023-03-19T04:47:05;32.25;;;21.25;;
26742;SDS011;14341;51.256;22.478;2023-03-19T04:50:21;35.97;;;21.88;;
26742;SDS011;14341;51.256;22.478;2023-03-19T04:53:26;32.05;;;20.38;;
26742;SDS011;14341;51.256;22.478;2023-03-19T04:56:30;29.33;;;19.33;;
26742;SDS011;14341;51.256;22.478;2023-03-19T04:59:35;34.67;;;20.77;;
26742;SDS011;14341;51.256;22.478;2023-03-19T05:02:38;29.60;;;19.05;;
26742;SDS011;14341;51.256;22.478;2023-03-19T05:05:43;27.75;;;17.85;;
26742;SDS011;14341;51.256;22.478;2023-03-19T05:08:47;29.63;;;17.83;;
26742;SDS011;14341;51.256;22.478;2023-03-19T05:11:52;30.40;;;17.27;;
26742;SDS011;14341;51.256;22.478;2023-03-19T05:14:57;26.98;;;16.80;;
26742;SDS011;14341;51.256;22.478;2023-03-19T05:18:08;28.65;;;15.48;;
26742;SDS011;14341;51.256;22.478;2023-03-19T05:21:14;24.35;;;14.98;;
26742;SDS011;14341;51.256;22.478;2023-03-19T05:24:17;25.70;;;16.13;;
26742;SDS011;14341;51.256;22.478;2023-03-19T05:27:22;28.98;;;15.65;;
26742;SDS011;14341;51.256;22.478;2023-03-19T05:30:46;23.90;;;15.48;;
26742;SDS011;14341;51.256;22.478;2023-03-19T05:37:19;23.55;;;14.40;;
26742;SDS011;14341;51.256;22.478;2023-03-19T05:40:29;24.60;;;15.38;;
26742;SDS011;14341;51.256;22.478;2023-03-19T05:43:42;22.85;;;14.65;;
26742;SDS011;14341;51.256;22.478;2023-03-19T05:46:56;23.67;;;14.38;;
26742;SDS011;14341;51.256;22.478;2023-03-19T05:50:03;23.08;;;14.43;;
26742;SDS011;14341;51.256;22.478;2023-03-19T05:53:07;27.17;;;14.15;;
26742;SDS011;14341;51.256;22.478;2023-03-19T05:56:14;24.40;;;14.50;;
26742;SDS011;14341;51.256;22.478;2023-03-19T05:59:37;23.15;;;14.35;;
26742;SDS011;14341;51.256;22.478;2023-03-19T06:03:00;26.38;;;15.27;;
26742;SDS011;14341;51.256;22.478;2023-03-19T06:06:12;24.05;;;14.77;;
26742;SDS011;14341;51.256;22.478;2023-03-19T06:09:18;21.52;;;14.40;;
26742;SDS011;14341;51.256;22.478;2023-03-19T06:12:27;25.07;;;15.47;;
26742;SDS011;14341;51.256;22.478;2023-03-19T06:15:49;25.02;;;14.55;;
26742;SDS011;14341;51.256;22.478;2023-03-19T06:18:58;24.52;;;14.20;;
26742;SDS011;14341;51.256;22.478;2023-03-19T06:22:01;27.52;;;15.45;;
26742;SDS011;14341;51.256;22.478;2023-03-19T06:25:05;24.42;;;14.82;;
26742;SDS011;14341;51.256;22.478;2023-03-19T06:28:11;25.10;;;15.18;;
26742;SDS011;14341;51.256;22.478;2023-03-19T06:31:17;24.25;;;15.27;;
26742;SDS011;14341;51.256;22.478;2023-03-19T06:34:34;24.75;;;15.23;;
26742;SDS011;14341;51.256;22.478;2023-03-19T06:37:38;26.08;;;15.10;;
26742;SDS011;14341;51.256;22.478;2023-03-19T06:40:42;25.17;;;14.50;;
26742;SDS011;14341;51.256;22.478;2023-03-19T06:43:45;24.90;;;14.57;;
26742;SDS011;14341;51.256;22.478;2023-03-19T06:46:48;23.83;;;14.85;;
26742;SDS011;14341;51.256;22.478;2023-03-19T06:49:53;24.20;;;14.23;;
26742;SDS011;14341;51.256;22.478;2023-03-19T06:52:56;22.90;;;14.35;;
26742;SDS011;14341;51.256;22.478;2023-03-19T06:56:02;23.58;;;13.05;;
26742;SDS011;14341;51.256;22.478;2023-03-19T06:59:06;24.95;;;14.00;;
26742;SDS011;14341;51.256;22.478;2023-03-19T07:02:13;22.38;;;13.15;;
26742;SDS011;14341;51.256;22.478;2023-03-19T07:05:19;25.17;;;13.27;;
26742;SDS011;14341;51.256;22.478;2023-03-19T07:08:22;20.95;;;13.40;;
26742;SDS011;14341;51.256;22.478;2023-03-19T07:11:30;21.65;;;13.48;;
26742;SDS011;14341;51.256;22.478;2023-03-19T07:14:36;21.20;;;13.43;;
26742;SDS011;14341;51.256;22.478;2023-03-19T07:17:39;22.08;;;13.35;;
26742;SDS011;14341;51.256;22.478;2023-03-19T07:20:45;22.50;;;12.85;;
26742;SDS011;14341;51.256;22.478;2023-03-19T07:23:49;23.73;;;13.40;;
26742;SDS011;14341;51.256;22.478;2023-03-19T07:26:52;20.92;;;13.25;;
26742;SDS011;14341;51.256;22.478;2023-03-19T07:29:55;23.02;;;12.98;;
26742;SDS011;14341;51.256;22.478;2023-03-19T07:32:59;24.23;;;13.32;;
26742;SDS011;14341;51.256;22.478;2023-03-19T07:36:04;22.75;;;14.18;;
26742;SDS011;14341;51.256;22.478;2023-03-19T07:39:08;23.58;;;13.80;;
26742;SDS011;14341;51.256;22.478;2023-03-19T07:42:12;25.80;;;13.60;;
26742;SDS011;14341;51.256;22.478;2023-03-19T07:45:16;23.48;;;14.93;;
26742;SDS011;14341;51.256;22.478;2023-03-19T07:48:19;25.52;;;14.45;;
26742;SDS011;14341;51.256;22.478;2023-03-19T07:51:24;23.80;;;14.20;;
26742;SDS011;14341;51.256;22.478;2023-03-19T07:54:28;23.10;;;14.85;;
26742;SDS011;14341;51.256;22.478;2023-03-19T07:57:31;24.20;;;14.75;;
26742;SDS011;14341;51.256;22.478;2023-03-19T08:00:34;24.67;;;14.23;;
26742;SDS011;14341;51.256;22.478;2023-03-19T08:03:38;21.75;;;13.57;;
26742;SDS011;14341;51.256;22.478;2023-03-19T08:06:43;20.05;;;12.95;;
26742;SDS011;14341;51.256;22.478;2023-03-19T08:09:46;23.27;;;13.45;;
26742;SDS011;14341;51.256;22.478;2023-03-19T08:12:50;22.02;;;13.63;;
26742;SDS011;14341;51.256;22.478;2023-03-19T08:15:53;20.33;;;13.52;;
26742;SDS011;14341;51.256;22.478;2023-03-19T08:18:57;23.73;;;13.32;;
26742;SDS011;14341;51.256;22.478;2023-03-19T08:22:01;22.67;;;13.38;;
26742;SDS011;14341;51.256;22.478;2023-03-19T08:25:05;25.10;;;13.95;;
26742;SDS011;14341;51.256;22.478;2023-03-19T08:28:09;26.55;;;14.18;;
26742;SDS011;14341;51.256;22.478;2023-03-19T08:31:13;24.80;;;13.80;;
26742;SDS011;14341;51.256;22.478;2023-03-19T08:34:17;22.58;;;13.35;;
26742;SDS011;14341;51.256;22.478;2023-03-19T08:37:21;24.27;;;13.90;;
26742;SDS011;14341;51.256;22.478;2023-03-19T08:40:25;20.10;;;13.90;;
26742;SDS011;14341;51.256;22.478;2023-03-19T08:43:29;21.80;;;13.18;;
26742;SDS011;14341;51.256;22.478;2023-03-19T08:46:33;22.30;;;14.32;;
26742;SDS011;14341;51.256;22.478;2023-03-19T08:49:37;21.77;;;13.70;;
26742;SDS011;14341;51.256;22.478;2023-03-19T08:52:42;22.25;;;13.48;;
26742;SDS011;14341;51.256;22.478;2023-03-19T08:55:49;24.52;;;14.60;;
26742;SDS011;14341;51.256;22.478;2023-03-19T08:58:54;24.33;;;13.57;;
26742;SDS011;14341;51.256;22.478;2023-03-19T09:01:58;25.33;;;14.25;;
26742;SDS011;14341;51.256;22.478;2023-03-19T09:05:02;23.50;;;13.07;;
26742;SDS011;14341;51.256;22.478;2023-03-19T09:08:07;25.90;;;14.95;;
26742;SDS011;14341;51.256;22.478;2023-03-19T09:11:11;24.92;;;14.30;;
26742;SDS011;14341;51.256;22.478;2023-03-19T09:14:17;24.80;;;14.18;;
26742;SDS011;14341;51.256;22.478;2023-03-19T09:17:21;21.77;;;13.07;;
26742;SDS011;14341;51.256;22.478;2023-03-19T09:20:24;22.42;;;14.48;;
26742;SDS011;14341;51.256;22.478;2023-03-19T09:23:29;24.50;;;13.25;;
26742;SDS011;14341;51.256;22.478;2023-03-19T09:26:32;26.80;;;13.68;;
26742;SDS011;14341;51.256;22.478;2023-03-19T09:29:36;23.80;;;13.93;;
26742;SDS011;14341;51.256;22.478;2023-03-19T09:32:39;25.42;;;13.60;;
26742;SDS011;14341;51.256;22.478;2023-03-19T09:35:50;23.73;;;13.57;;
26742;SDS011;14341;51.256;22.478;2023-03-19T09:39:02;23.35;;;13.88;;
26742;SDS011;14341;51.256;22.478;2023-03-19T09:42:19;25.00;;;14.23;;
26742;SDS011;14341;51.256;22.478;2023-03-19T09:45:34;24.02;;;13.93;;
26742;SDS011;14341;51.256;22.478;2023-03-19T09:48:42;24.38;;;12.93;;
26742;SDS011;14341;51.256;22.478;2023-03-19T09:51:52;23.30;;;14.30;;
26742;SDS011;14341;51.256;22.478;2023-03-19T09:54:59;25.50;;;14.43;;
26742;SDS011;14341;51.256;22.478;2023-03-19T09:58:12;17.40;;;11.05;;
26742;SDS011;14341;51.256;22.478;2023-03-19T10:01:21;18.07;;;10.80;;
26742;SDS011;14341;51.256;22.478;2023-03-19T10:04:34;24.88;;;14.93;;
26742;SDS011;14341;51.256;22.478;2023-03-19T10:11:26;29.73;;;16.77;;
26742;SDS011;14341;51.256;22.478;2023-03-19T10:14:47;26.73;;;14.65;;
26742;SDS011;14341;51.256;22.478;2023-03-19T10:18:02;20.80;;;13.45;;
26742;SDS011;14341;51.256;22.478;2023-03-19T10:21:09;20.10;;;12.82;;
26742;SDS011;14341;51.256;22.478;2023-03-19T10:24:28;24.10;;;13.45;;
26742;SDS011;14341;51.256;22.478;2023-03-19T10:27:36;21.48;;;13.10;;
26742;SDS011;14341;51.256;22.478;2023-03-19T10:30:40;22.70;;;14.07;;
26742;SDS011;14341;51.256;22.478;2023-03-19T10:33:49;21.67;;;13.52;;
26742;SDS011;14341;51.256;22.478;2023-03-19T10:37:00;22.20;;;13.05;;
26742;SDS011;14341;51.256;22.478;2023-03-19T10:40:05;25.10;;;14.07;;
26742;SDS011;14341;51.256;22.478;2023-03-19T10:43:21;19.90;;;13.30;;
26742;SDS011;14341;51.256;22.478;2023-03-19T10:46:27;24.27;;;13.95;;
26742;SDS011;14341;51.256;22.478;2023-03-19T10:49:37;29.42;;;14.90;;
26742;SDS011;14341;51.256;22.478;2023-03-19T10:52:41;23.02;;;14.63;;
26742;SDS011;14341;51.256;22.478;2023-03-19T10:55:45;31.17;;;14.90;;
26742;SDS011;14341;51.256;22.478;2023-03-19T10:58:57;24.45;;;13.90;;
26742;SDS011;14341;51.256;22.478;2023-03-19T11:02:06;23.83;;;13.82;;
26742;SDS011;14341;51.256;22.478;2023-03-19T11:05:22;28.10;;;13.77;;
26742;SDS011;14341;51.256;22.478;2023-03-19T11:11:40;21.92;;;13.75;;
26742;SDS011;14341;51.256;22.478;2023-03-19T11:14:47;23.27;;;14.40;;
26742;SDS011;14341;51.256;22.478;2023-03-19T11:17:55;22.70;;;14.38;;
26742;SDS011;14341;51.256;22.478;2023-03-19T11:21:00;21.80;;;13.70;;
26742;SDS011;14341;51.256;22.478;2023-03-19T11:24:08;23.92;;;14.23;;
26742;SDS011;14341;51.256;22.478;2023-03-19T11:27:14;21.17;;;14.20;;
26742;SDS011;14341;51.256;22.478;2023-03-19T11:30:19;24.23;;;14.10;;
26742;SDS011;14341;51.256;22.478;2023-03-19T11:33:31;27.73;;;14.43;;
26742;SDS011;14341;51.256;22.478;2023-03-19T11:36:53;21.38;;;13.73;;
26742;SDS011;14341;51.256;22.478;2023-03-19T11:40:07;20.25;;;13.70;;
26742;SDS011;14341;51.256;22.478;2023-03-19T11:43:28;21.10;;;13.50;;
26742;SDS011;14341;51.256;22.478;2023-03-19T11:46:43;24.38;;;15.55;;
26742;SDS011;14341;51.256;22.478;2023-03-19T11:50:02;23.70;;;14.45;;
26742;SDS011;14341;51.256;22.478;2023-03-19T11:53:20;21.88;;;14.38;;
26742;SDS011;14341;51.256;22.478;2023-03-19T11:56:29;27.33;;;14.75;;
26742;SDS011;14341;51.256;22.478;2023-03-19T12:06:52;20.27;;;14.23;;
26742;SDS011;14341;51.256;22.478;2023-03-19T12:10:13;24.63;;;14.80;;
26742;SDS011;14341;51.256;22.478;2023-03-19T12:13:29;21.50;;;13.95;;
26742;SDS011;14341;51.256;22.478;2023-03-19T12:16:49;20.00;;;14.00;;
26742;SDS011;14341;51.256;22.478;2023-03-19T12:20:05;24.73;;;15.27;;
26742;SDS011;14341;51.256;22.478;2023-03-19T12:23:26;30.88;;;15.15;;
26742;SDS011;14341;51.256;22.478;2023-03-19T12:26:41;21.85;;;14.98;;
26742;SDS011;14341;51.256;22.478;2023-03-19T12:29:53;25.77;;;15.88;;
26742;SDS011;14341;51.256;22.478;2023-03-19T12:33:09;20.48;;;14.88;;
26742;SDS011;14341;51.256;22.478;2023-03-19T12:36:24;22.05;;;15.23;;
26742;SDS011;14341;51.256;22.478;2023-03-19T12:39:33;21.88;;;15.23;;
26742;SDS011;14341;51.256;22.478;2023-03-19T12:42:40;21.63;;;14.50;;
26742;SDS011;14341;51.256;22.478;2023-03-19T12:45:45;20.80;;;15.18;;
26742;SDS011;14341;51.256;22.478;2023-03-19T12:48:52;24.48;;;15.63;;
26742;SDS011;14341;51.256;22.478;2023-03-19T12:52:00;22.42;;;15.57;;
26742;SDS011;14341;51.256;22.478;2023-03-19T12:55:18;23.55;;;16.40;;
26742;SDS011;14341;51.256;22.478;2023-03-19T12:58:35;23.88;;;15.93;;
26742;SDS011;14341;51.256;22.478;2023-03-19T13:01:56;23.48;;;16.15;;
26742;SDS011;14341;51.256;22.478;2023-03-19T13:05:06;22.25;;;15.13;;
26742;SDS011;14341;51.256;22.478;2023-03-19T13:08:26;25.23;;;16.48;;
26742;SDS011;14341;51.256;22.478;2023-03-19T13:11:37;25.48;;;16.23;;
26742;SDS011;14341;51.256;22.478;2023-03-19T13:14:47;22.60;;;15.55;;
26742;SDS011;14341;51.256;22.478;2023-03-19T13:18:00;23.67;;;16.80;;
26742;SDS011;14341;51.256;22.478;2023-03-19T13:21:20;24.35;;;16.33;;
26742;SDS011;14341;51.256;22.478;2023-03-19T13:24:25;28.52;;;19.20;;
26742;SDS011;14341;51.256;22.478;2023-03-19T13:27:33;29.42;;;16.80;;
26742;SDS011;14341;51.256;22.478;2023-03-19T13:30:37;24.02;;;15.70;;
26742;SDS011;14341;51.256;22.478;2023-03-19T13:33:48;26.20;;;15.75;;
26742;SDS011;14341;51.256;22.478;2023-03-19T13:36:59;24.90;;;14.48;;
26742;SDS011;14341;51.256;22.478;2023-03-19T13:40:23;25.67;;;14.35;;
26742;SDS011;14341;51.256;22.478;2023-03-19T13:43:42;21.52;;;13.70;;
26742;SDS011;14341;51.256;22.478;2023-03-19T13:46:54;20.88;;;14.07;;
26742;SDS011;14341;51.256;22.478;2023-03-19T13:50:01;21.13;;;13.40;;
26742;SDS011;14341;51.256;22.478;2023-03-19T13:53:39;21.98;;;13.63;;
26742;SDS011;14341;51.256;22.478;2023-03-19T14:03:52;24.02;;;14.20;;
26742;SDS011;14341;51.256;22.478;2023-03-19T14:07:09;21.63;;;14.32;;
26742;SDS011;14341;51.256;22.478;2023-03-19T14:10:20;19.23;;;14.00;;
26742;SDS011;14341;51.256;22.478;2023-03-19T14:13:29;21.90;;;13.00;;
26742;SDS011;14341;51.256;22.478;2023-03-19T14:16:40;23.85;;;15.90;;
26742;SDS011;14341;51.256;22.478;2023-03-19T14:19:48;21.27;;;12.73;;
26742;SDS011;14341;51.256;22.478;2023-03-19T14:22:54;18.83;;;12.15;;
26742;SDS011;14341;51.256;22.478;2023-03-19T14:26:05;23.52;;;13.15;;
26742;SDS011;14341;51.256;22.478;2023-03-19T14:29:14;54.53;;;25.23;;
26742;SDS011;14341;51.256;22.478;2023-03-19T14:32:20;488.98;;;192.52;;
26742;SDS011;14341;51.256;22.478;2023-03-19T14:35:32;693.05;;;320.50;;
26742;SDS011;14341;51.256;22.478;2023-03-19T14:38:44;293.48;;;118.75;;
26742;SDS011;14341;51.256;22.478;2023-03-19T14:41:54;214.02;;;99.80;;
26742;SDS011;14341;51.256;22.478;2023-03-19T14:48:44;49.88;;;32.15;;
26742;SDS011;14341;51.256;22.478;2023-03-19T14:52:10;23.90;;;14.90;;
26742;SDS011;14341;51.256;22.478;2023-03-19T14:55:18;23.10;;;14.75;;
26742;SDS011;14341;51.256;22.478;2023-03-19T14:58:22;24.80;;;14.30;;
26742;SDS011;14341;51.256;22.478;2023-03-19T15:01:26;28.35;;;13.50;;
26742;SDS011;14341;51.256;22.478;2023-03-19T15:04:30;20.50;;;12.60;;
26742;SDS011;14341;51.256;22.478;2023-03-19T15:07:39;21.08;;;13.52;;
26742;SDS011;14341;51.256;22.478;2023-03-19T15:10:48;20.80;;;13.82;;
26742;SDS011;14341;51.256;22.478;2023-03-19T15:14:05;22.05;;;13.65;;
26742;SDS011;14341;51.256;22.478;2023-03-19T15:17:20;19.20;;;13.37;;
26742;SDS011;14341;51.256;22.478;2023-03-19T15:20:27;22.65;;;13.18;;
26742;SDS011;14341;51.256;22.478;2023-03-19T15:23:36;21.30;;;13.63;;
26742;SDS011;14341;51.256;22.478;2023-03-19T15:26:41;22.88;;;13.10;;
26742;SDS011;14341;51.256;22.478;2023-03-19T15:29:47;19.27;;;12.93;;
26742;SDS011;14341;51.256;22.478;2023-03-19T15:32:52;20.27;;;14.27;;
26742;SDS011;14341;51.256;22.478;2023-03-19T15:39:20;27.88;;;16.08;;
26742;SDS011;14341;51.256;22.478;2023-03-19T15:42:25;33.53;;;13.18;;
26742;SDS011;14341;51.256;22.478;2023-03-19T15:45:30;30.15;;;14.30;;
26742;SDS011;14341;51.256;22.478;2023-03-19T15:48:36;29.60;;;13.45;;
26742;SDS011;14341;51.256;22.478;2023-03-19T15:51:44;34.40;;;12.82;;
26742;SDS011;14341;51.256;22.478;2023-03-19T15:54:54;25.63;;;12.98;;
26742;SDS011;14341;51.256;22.478;2023-03-19T15:58:01;26.20;;;14.00;;
26742;SDS011;14341;51.256;22.478;2023-03-19T16:01:07;25.20;;;15.35;;
26742;SDS011;14341;51.256;22.478;2023-03-19T16:04:15;24.30;;;14.95;;
26742;SDS011;14341;51.256;22.478;2023-03-19T16:07:24;29.47;;;15.53;;
26742;SDS011;14341;51.256;22.478;2023-03-19T16:10:39;25.77;;;16.58;;
26742;SDS011;14341;51.256;22.478;2023-03-19T16:13:45;31.40;;;15.68;;
26742;SDS011;14341;51.256;22.478;2023-03-19T16:17:01;30.75;;;18.58;;
26742;SDS011;14341;51.256;22.478;2023-03-19T16:20:12;41.13;;;23.38;;
26742;SDS011;14341;51.256;22.478;2023-03-19T16:23:16;52.80;;;28.75;;
26742;SDS011;14341;51.256;22.478;2023-03-19T16:26:23;49.97;;;27.60;;
26742;SDS011;14341;51.256;22.478;2023-03-19T16:29:28;45.63;;;27.55;;
26742;SDS011;14341;51.256;22.478;2023-03-19T16:32:35;37.03;;;22.95;;
26742;SDS011;14341;51.256;22.478;2023-03-19T16:35:39;37.08;;;21.50;;
26742;SDS011;14341;51.256;22.478;2023-03-19T16:38:50;34.95;;;20.90;;
26742;SDS011;14341;51.256;22.478;2023-03-19T16:48:32;33.00;;;17.45;;
26742;SDS011;14341;51.256;22.478;2023-03-19T16:51:37;33.50;;;17.70;;
26742;SDS011;14341;51.256;22.478;2023-03-19T16:54:42;29.58;;;17.90;;
26742;SDS011;14341;51.256;22.478;2023-03-19T16:57:49;33.72;;;20.20;;
26742;SDS011;14341;51.256;22.478;2023-03-19T17:01:00;33.35;;;19.80;;
26742;SDS011;14341;51.256;22.478;2023-03-19T17:04:07;32.67;;;19.83;;
26742;SDS011;14341;51.256;22.478;2023-03-19T17:07:14;33.33;;;20.92;;
26742;SDS011;14341;51.256;22.478;2023-03-19T17:10:19;40.35;;;21.88;;
26742;SDS011;14341;51.256;22.478;2023-03-19T17:13:26;40.28;;;25.02;;
26742;SDS011;14341;51.256;22.478;2023-03-19T17:16:31;46.47;;;26.42;;
26742;SDS011;14341;51.256;22.478;2023-03-19T17:19:35;56.85;;;30.25;;
26742;SDS011;14341;51.256;22.478;2023-03-19T17:22:41;68.15;;;33.88;;
26742;SDS011;14341;51.256;22.478;2023-03-19T17:25:45;73.35;;;38.20;;
26742;SDS011;14341;51.256;22.478;2023-03-19T17:28:53;81.10;;;42.45;;
26742;SDS011;14341;51.256;22.478;2023-03-19T17:31:58;89.70;;;44.03;;
26742;SDS011;14341;51.256;22.478;2023-03-19T17:35:12;87.57;;;46.28;;
26742;SDS011;14341;51.256;22.478;2023-03-19T17:38:17;90.80;;;46.58;;
26742;SDS011;14341;51.256;22.478;2023-03-19T17:41:21;82.57;;;46.72;;
26742;SDS011;14341;51.256;22.478;2023-03-19T17:44:26;98.95;;;51.65;;
26742;SDS011;14341;51.256;22.478;2023-03-19T17:47:30;124.57;;;59.60;;
26742;SDS011;14341;51.256;22.478;2023-03-19T17:50:35;107.25;;;56.78;;
26742;SDS011;14341;51.256;22.478;2023-03-19T17:53:40;112.13;;;57.95;;
26742;SDS011;14341;51.256;22.478;2023-03-19T17:56:47;127.88;;;62.25;;
26742;SDS011;14341;51.256;22.478;2023-03-19T17:59:53;136.15;;;64.80;;
26742;SDS011;14341;51.256;22.478;2023-03-19T18:02:56;180.25;;;79.40;;
26742;SDS011;14341;51.256;22.478;2023-03-19T18:06:01;151.82;;;70.50;;
26742;SDS011;14341;51.256;22.478;2023-03-19T18:09:08;206.95;;;98.32;;
26742;SDS011;14341;51.256;22.478;2023-03-19T18:12:19;190.52;;;91.68;;
26742;SDS011;14341;51.256;22.478;2023-03-19T18:15:24;318.55;;;137.13;;
26742;SDS011;14341;51.256;22.478;2023-03-19T18:18:27;316.48;;;134.20;;
26742;SDS011;14341;51.256;22.478;2023-03-19T18:21:31;342.88;;;143.88;;
26742;SDS011;14341;51.256;22.478;2023-03-19T18:24:36;320.20;;;135.07;;
26742;SDS011;14341;51.256;22.478;2023-03-19T18:27:41;252.18;;;114.85;;
26742;SDS011;14341;51.256;22.478;2023-03-19T18:30:49;236.38;;;103.93;;
26742;SDS011;14341;51.256;22.478;2023-03-19T18:33:54;207.57;;;97.60;;
26742;SDS011;14341;51.256;22.478;2023-03-19T18:37:01;196.40;;;97.30;;
26742;SDS011;14341;51.256;22.478;2023-03-19T18:40:05;220.80;;;100.65;;